Flight Track Log - Related Links

Times and Time Zones

All times are in EDT time to prevent confusion due to time zone crossing. See the N2058A flight status page for this flight to view local times or setup timezone preferences in your user account.

Time Position Orientation Groundspeed Altitude Reporting Facility
EDT Latitude Longitude Course Direction KTS MPH feet Rate Location/Type
Tue 09:58:52 AM 35.0889 -101.8214 180° South 147 169 5,900  Level Albuquerque Center
Tue 09:59:54 AM 35.0481 -101.8217 180° South 146 168 7,100 878 Climbing Albuquerque Center
Tue 10:00:55 AM 35.0072 -101.8231 182° South 146 168 7,700 246 Climbing Albuquerque Center
Tue 10:01:56 AM 34.9475 -101.8228 180° South 173 199 7,600 -49 Descending Albuquerque Center
Tue 10:02:58 AM 34.8944 -101.8214 179° South 187 215 7,600 -49 Level Albuquerque Center
Tue 10:03:59 AM 34.8433 -101.8208 179° South 185 213 7,500 -49 Descending Albuquerque Center
Tue 10:04:00 AM 34.9838 -101.8252 180° South  Level Estimated
Tue 10:05:01 AM 34.7911 -101.8189 178° South 186 214 7,500  Level Albuquerque Center
Tue 10:06:02 AM 34.7417 -101.8153 177° South 182 209 7,700 49 Climbing Albuquerque Center
Tue 10:07:04 AM 34.6908 -101.8133 178° South 182 209 7,600 -49 Descending Albuquerque Center
Tue 10:08:05 AM 34.6394 -101.8169 183° South 183 211 7,600  Level Albuquerque Center
Tue 10:09:06 AM 34.5886 -101.8192 182° South 184 212 7,600 -49 Level Albuquerque Center
Tue 10:10:08 AM 34.5275 -101.8225 183° South 183 211 7,500 -48 Descending Albuquerque Center
Tue 10:11:10 AM 34.4753 -101.8233 181° South 185 213 7,500 49 Level Albuquerque Center
Tue 10:12:11 AM 34.4225 -101.8281 184° South 187 215 7,600 51 Climbing Albuquerque Center
Tue 10:13:07 AM 34.3683 -101.8364 187° South 184 212 7,600 47 Level Fort Worth Center
Tue 10:14:18 AM 34.3100 -101.8383 182° South 192 221 7,700 46 Climbing Fort Worth Center
Tue 10:15:18 AM 34.2642 -101.8361 178° South 192 221 7,700 -54 Level Fort Worth Center
Tue 10:16:09 AM 34.2142 -101.8336 178° South 189 217 7,600 -54 Descending Fort Worth Center
Tue 10:17:09 AM 34.1619 -101.8308 177° South 188 216 7,600  Level Fort Worth Center
Tue 10:18:10 AM 34.1100 -101.8308 180° South 186 214 7,600 -99 Level Fort Worth Center
Tue 10:19:10 AM 34.0575 -101.8356 184° South 188 216 7,400 -347 Descending Fort Worth Center
Tue 10:20:11 AM 33.9992 -101.8325 178° South 195 224 6,900 -492 Descending Fort Worth Center
Tue 10:21:12 AM 33.9450 -101.8300 178° South 195 224 6,400 -248 Descending Fort Worth Center
Tue 10:22:12 AM 33.8972 -101.8275 178° South 169 194 6,400 -248 Level Fort Worth Center
Tue 10:23:13 AM 33.8492 -101.8275 180° South 173 199 5,900 -545 Descending Fort Worth Center
Tue 10:24:13 AM 33.8011 -101.8300 182° South 176 203 5,300 -694 Descending Fort Worth Center
Tue 10:25:14 AM 33.7572 -101.8328 183° South 147 169 4,500 -563 Descending Fort Worth Center
Tue 10:26:21 AM 33.7239 -101.8336 181° South 107 123 4,100 -378 Descending Fort Worth Center
Tue 10:27:21 AM 33.6947 -101.8322 178° South 94 108 3,700 -400 Descending Fort Worth Center
Tue 10:29:00 AM 33.6637 -101.8206 180° South  Level Estimated
Tue 10:36:00 AM 33.6637 -101.8206 180° South  Level Estimated

Login

Don't have an account? Register now (free) for customized features, flight alerts, and more!